This is the latest recevied weather packets stored in our database for station/object S54MI-13. If no packets are shown the sender has not sent any weather packets the latest 10 day(s).
| Time | Temp. | Humidity | Pressure | Rain* | Wind** | Luminosity | Snow |
|---|---|---|---|---|---|---|---|
| 1777162125 | 13.33° C | 50% | - | - | - | 0 W/m² | - |
| 1777157064 | 14.44° C | 49% | - | - | - | 0 W/m² | - |
| 1777152025 | 13.33° C | 51% | - | - | - | 0 W/m² | - |
| 1777147704 | 13.89° C | 50% | - | - | - | 0 W/m² | - |
| 1777146264 | 14.44° C | 48% | - | - | - | 0 W/m² | - |
| 1777140502 | 17.22° C | 41% | - | - | - | 54 W/m² | - |
| 1777132581 | 22.78° C | 30% | - | - | - | 409 W/m² | - |
| 1777131861 | 23.33° C | 30% | - | - | - | 503 W/m² | - |
| 1777125378 | 24.44° C | 31% | - | - | - | 738 W/m² | - |
| 1777124658 | 24.44° C | 32% | - | - | - | 796 W/m² | - |
| 1777123937 | 25° C | 32% | - | - | - | 796 W/m² | - |
| 1777119616 | 23.89° C | 37% | - | - | - | 868 W/m² | - |
| 1777115303 | 21.67° C | 39% | - | - | - | 880 W/m² | - |
| 1777113860 | 21.67° C | 40% | - | - | - | 859 W/m² | - |
| 1777111702 | 22.22° C | 39% | - | - | - | 823 W/m² | - |
| 1777109536 | 21.67° C | 39% | - | - | - | 775 W/m² | - |
| 1777103059 | 20° C | 33% | - | - | - | 459 W/m² | - |
| 1777094422 | 12.22° C | 33% | - | - | - | 90 W/m² | - |
| 1777090817 | 11.67° C | 32% | - | - | - | 1 W/m² | - |
| 1777089381 | 12.22° C | 32% | - | - | - | 0 W/m² | - |
| 1777083621 | 12.22° C | 32% | - | - | - | 0 W/m² | - |
| 1777082901 | 12.78° C | 32% | - | - | - | 0 W/m² | - |
| 1777078581 | 12.22° C | 30% | - | - | - | 0 W/m² | - |
* Rain since midnight (hover to see other rain measurements)
** Current wind speed in m/s (hover to see current wind gust speed)